<?xml version="1.0" encoding="UTF-8" standalone="no" ?>
<gpx xmlns="http://www.topografix.com/GPX/1/1" xmlns:xsi="http://www.w3.org/2001/XMLSchema-instance" xsi:schemaLocation="http://www.topografix.com/GPX/1/1 http://www.topografix.com/GPX/1/1/gpx.xsd" version="1.1" creator="VisuGPX - https://www.visugpx.com">
  <metadata>
    <name>10750967-boucle sauvage truc de la garde</name>
    <desc><![CDATA[A l'initiative de Lucile Equi- Margeride 22/08/2020]]></desc>
  </metadata>
  <trk>
    <name><![CDATA[10750967-boucle sauvage truc de la garde]]></name>
    <trkseg>
      <trkpt lat="44.82462" lon="3.48746">
        <ele>1292</ele>
        <time>2020-08-19T17:14:56Z</time>
      </trkpt>
      <trkpt lat="44.82332" lon="3.48735">
        <ele>1294</ele>
        <time>2020-08-19T17:16:40Z</time>
      </trkpt>
      <trkpt lat="44.82335" lon="3.48429">
        <ele>1312</ele>
        <time>2020-08-19T17:19:34Z</time>
      </trkpt>
      <trkpt lat="44.82198" lon="3.48169">
        <ele>1300</ele>
        <time>2020-08-19T17:22:38Z</time>
      </trkpt>
      <trkpt lat="44.82227" lon="3.47975">
        <ele>1310</ele>
        <time>2020-08-19T17:24:31Z</time>
      </trkpt>
      <trkpt lat="44.82223" lon="3.47832">
        <ele>1312</ele>
        <time>2020-08-19T17:25:52Z</time>
      </trkpt>
      <trkpt lat="44.82346" lon="3.47669">
        <ele>1309</ele>
        <time>2020-08-19T17:28:07Z</time>
      </trkpt>
      <trkpt lat="44.82332" lon="3.47536">
        <ele>1312</ele>
        <time>2020-08-19T17:29:23Z</time>
      </trkpt>
      <trkpt lat="44.82397" lon="3.47424">
        <ele>1310</ele>
        <time>2020-08-19T17:30:46Z</time>
      </trkpt>
      <trkpt lat="44.82462" lon="3.47215">
        <ele>1330</ele>
        <time>2020-08-19T17:32:55Z</time>
      </trkpt>
      <trkpt lat="44.82603" lon="3.47067">
        <ele>1329</ele>
        <time>2020-08-19T17:35:16Z</time>
      </trkpt>
      <trkpt lat="44.82665" lon="3.46735">
        <ele>1324</ele>
        <time>2020-08-19T17:38:31Z</time>
      </trkpt>
      <trkpt lat="44.82839" lon="3.46612">
        <ele>1312</ele>
        <time>2020-08-19T17:41:07Z</time>
      </trkpt>
      <trkpt lat="44.83048" lon="3.46714">
        <ele>1308</ele>
        <time>2020-08-19T17:44:04Z</time>
      </trkpt>
      <trkpt lat="44.83132" lon="3.46556">
        <ele>1313</ele>
        <time>2020-08-19T17:45:56Z</time>
      </trkpt>
      <trkpt lat="44.83179" lon="3.4624">
        <ele>1308</ele>
        <time>2020-08-19T17:48:59Z</time>
      </trkpt>
      <trkpt lat="44.83041" lon="3.45719">
        <ele>1295</ele>
        <time>2020-08-19T17:54:15Z</time>
      </trkpt>
      <trkpt lat="44.82991" lon="3.45627">
        <ele>1302</ele>
        <time>2020-08-19T17:55:21Z</time>
      </trkpt>
      <trkpt lat="44.82781" lon="3.4552">
        <ele>1286</ele>
        <time>2020-08-19T17:58:20Z</time>
      </trkpt>
      <trkpt lat="44.82918" lon="3.45423">
        <ele>1307</ele>
        <time>2020-08-19T18:00:22Z</time>
      </trkpt>
      <trkpt lat="44.83269" lon="3.45199">
        <ele>1349</ele>
        <time>2020-08-19T18:05:31Z</time>
      </trkpt>
      <trkpt lat="44.83392" lon="3.45035">
        <ele>1343</ele>
        <time>2020-08-19T18:07:46Z</time>
      </trkpt>
      <trkpt lat="44.83656" lon="3.45862">
        <ele>1404</ele>
        <time>2020-08-19T18:16:21Z</time>
      </trkpt>
      <trkpt lat="44.83924" lon="3.45867">
        <ele>1428</ele>
        <time>2020-08-19T18:19:56Z</time>
      </trkpt>
      <trkpt lat="44.84416" lon="3.45576">
        <ele>1407</ele>
        <time>2020-08-19T18:27:03Z</time>
      </trkpt>
      <trkpt lat="44.84543" lon="3.45148">
        <ele>1399</ele>
        <time>2020-08-19T18:31:27Z</time>
      </trkpt>
      <trkpt lat="44.8472" lon="3.45051">
        <ele>1387</ele>
        <time>2020-08-19T18:33:59Z</time>
      </trkpt>
      <trkpt lat="44.84966" lon="3.4476">
        <ele>1391</ele>
        <time>2020-08-19T18:38:16Z</time>
      </trkpt>
      <trkpt lat="44.85354" lon="3.44622">
        <ele>1380</ele>
        <time>2020-08-19T18:43:36Z</time>
      </trkpt>
      <trkpt lat="44.85444" lon="3.44183">
        <ele>1388</ele>
        <time>2020-08-19T18:47:55Z</time>
      </trkpt>
      <trkpt lat="44.86088" lon="3.43887">
        <ele>1414</ele>
        <time>2020-08-19T18:56:58Z</time>
      </trkpt>
      <trkpt lat="44.86862" lon="3.43851">
        <ele>1415</ele>
        <time>2020-08-19T19:07:18Z</time>
      </trkpt>
      <trkpt lat="44.86862" lon="3.44142">
        <ele>1412</ele>
        <time>2020-08-19T19:10:03Z</time>
      </trkpt>
      <trkpt lat="44.86754" lon="3.44535">
        <ele>1402</ele>
        <time>2020-08-19T19:14:02Z</time>
      </trkpt>
      <trkpt lat="44.86877" lon="3.44688">
        <ele>1399</ele>
        <time>2020-08-19T19:16:13Z</time>
      </trkpt>
      <trkpt lat="44.87039" lon="3.44627">
        <ele>1390</ele>
        <time>2020-08-19T19:18:28Z</time>
      </trkpt>
      <trkpt lat="44.87538" lon="3.44734">
        <ele>1394</ele>
        <time>2020-08-19T19:25:12Z</time>
      </trkpt>
      <trkpt lat="44.87603" lon="3.44535">
        <ele>1396</ele>
        <time>2020-08-19T19:27:16Z</time>
      </trkpt>
      <trkpt lat="44.87723" lon="3.44408">
        <ele>1400</ele>
        <time>2020-08-19T19:29:16Z</time>
      </trkpt>
      <trkpt lat="44.87745" lon="3.44219">
        <ele>1410</ele>
        <time>2020-08-19T19:31:05Z</time>
      </trkpt>
      <trkpt lat="44.87929" lon="3.44112">
        <ele>1425</ele>
        <time>2020-08-19T19:33:44Z</time>
      </trkpt>
      <trkpt lat="44.87987" lon="3.43979">
        <ele>1441</ele>
        <time>2020-08-19T19:35:13Z</time>
      </trkpt>
      <trkpt lat="44.8803" lon="3.43872">
        <ele>1455</ele>
        <time>2020-08-19T19:36:23Z</time>
      </trkpt>
      <trkpt lat="44.87972" lon="3.43642">
        <ele>1479</ele>
        <time>2020-08-19T19:38:41Z</time>
      </trkpt>
      <trkpt lat="44.88001" lon="3.43719">
        <ele>1473</ele>
        <time>2020-08-19T19:39:31Z</time>
      </trkpt>
      <trkpt lat="44.8794" lon="3.44168">
        <ele>1420</ele>
        <time>2020-08-19T19:43:50Z</time>
      </trkpt>
      <trkpt lat="44.87954" lon="3.445">
        <ele>1402</ele>
        <time>2020-08-19T19:46:59Z</time>
      </trkpt>
      <trkpt lat="44.88001" lon="3.44617">
        <ele>1397</ele>
        <time>2020-08-19T19:48:15Z</time>
      </trkpt>
      <trkpt lat="44.8786" lon="3.45046">
        <ele>1395</ele>
        <time>2020-08-19T19:52:43Z</time>
      </trkpt>
      <trkpt lat="44.87629" lon="3.45638">
        <ele>1366</ele>
        <time>2020-08-19T19:59:07Z</time>
      </trkpt>
      <trkpt lat="44.87654" lon="3.45934">
        <ele>1344</ele>
        <time>2020-08-19T20:01:56Z</time>
      </trkpt>
      <trkpt lat="44.87632" lon="3.46199">
        <ele>1312</ele>
        <time>2020-08-19T20:04:27Z</time>
      </trkpt>
      <trkpt lat="44.876" lon="3.46403">
        <ele>1292</ele>
        <time>2020-08-19T20:06:26Z</time>
      </trkpt>
      <trkpt lat="44.87531" lon="3.46505">
        <ele>1279</ele>
        <time>2020-08-19T20:07:46Z</time>
      </trkpt>
      <trkpt lat="44.87625" lon="3.46602">
        <ele>1262</ele>
        <time>2020-08-19T20:09:19Z</time>
      </trkpt>
      <trkpt lat="44.87528" lon="3.46694">
        <ele>1250</ele>
        <time>2020-08-19T20:10:53Z</time>
      </trkpt>
      <trkpt lat="44.87632" lon="3.47255">
        <ele>1254</ele>
        <time>2020-08-19T20:16:22Z</time>
      </trkpt>
      <trkpt lat="44.87723" lon="3.47373">
        <ele>1248</ele>
        <time>2020-08-19T20:18:01Z</time>
      </trkpt>
      <trkpt lat="44.87752" lon="3.47587">
        <ele>1237</ele>
        <time>2020-08-19T20:20:04Z</time>
      </trkpt>
      <trkpt lat="44.87902" lon="3.47827">
        <ele>1230</ele>
        <time>2020-08-19T20:23:06Z</time>
      </trkpt>
      <trkpt lat="44.88143" lon="3.48076">
        <ele>1228</ele>
        <time>2020-08-19T20:27:05Z</time>
      </trkpt>
      <trkpt lat="44.8821" lon="3.48218">
        <ele>1230</ele>
        <time>2020-08-19T20:28:42Z</time>
      </trkpt>
      <trkpt lat="44.8821" lon="3.48328">
        <ele>1227</ele>
        <time>2020-08-19T20:29:44Z</time>
      </trkpt>
      <trkpt lat="44.88287" lon="3.4841">
        <ele>1225</ele>
        <time>2020-08-19T20:31:01Z</time>
      </trkpt>
      <trkpt lat="44.88322" lon="3.48816">
        <ele>1194</ele>
        <time>2020-08-19T20:34:53Z</time>
      </trkpt>
      <trkpt lat="44.88296" lon="3.49077">
        <ele>1182</ele>
        <time>2020-08-19T20:37:23Z</time>
      </trkpt>
      <trkpt lat="44.88079" lon="3.49502">
        <ele>1163</ele>
        <time>2020-08-19T20:42:20Z</time>
      </trkpt>
      <trkpt lat="44.88033" lon="3.49627">
        <ele>1151</ele>
        <time>2020-08-19T20:43:40Z</time>
      </trkpt>
      <trkpt lat="44.88147" lon="3.49897">
        <ele>1134</ele>
        <time>2020-08-19T20:46:38Z</time>
      </trkpt>
      <trkpt lat="44.88018" lon="3.49933">
        <ele>1116</ele>
        <time>2020-08-19T20:48:24Z</time>
      </trkpt>
      <trkpt lat="44.8796" lon="3.49994">
        <ele>1104</ele>
        <time>2020-08-19T20:49:22Z</time>
      </trkpt>
      <trkpt lat="44.87831" lon="3.50009">
        <ele>1096</ele>
        <time>2020-08-19T20:51:05Z</time>
      </trkpt>
      <trkpt lat="44.87778" lon="3.5013">
        <ele>1106</ele>
        <time>2020-08-19T20:52:26Z</time>
      </trkpt>
      <trkpt lat="44.87453" lon="3.50285">
        <ele>1151</ele>
        <time>2020-08-19T20:57:01Z</time>
      </trkpt>
      <trkpt lat="44.87406" lon="3.49878">
        <ele>1131</ele>
        <time>2020-08-19T21:00:55Z</time>
      </trkpt>
      <trkpt lat="44.8718" lon="3.49506">
        <ele>1104</ele>
        <time>2020-08-19T21:05:33Z</time>
      </trkpt>
      <trkpt lat="44.86866" lon="3.49603">
        <ele>1118</ele>
        <time>2020-08-19T21:09:50Z</time>
      </trkpt>
      <trkpt lat="44.86587" lon="3.49562">
        <ele>1127</ele>
        <time>2020-08-19T21:13:35Z</time>
      </trkpt>
      <trkpt lat="44.86403" lon="3.49511">
        <ele>1134</ele>
        <time>2020-08-19T21:16:05Z</time>
      </trkpt>
      <trkpt lat="44.86193" lon="3.4947">
        <ele>1129</ele>
        <time>2020-08-19T21:18:54Z</time>
      </trkpt>
      <trkpt lat="44.85943" lon="3.49373">
        <ele>1149</ele>
        <time>2020-08-19T21:22:22Z</time>
      </trkpt>
      <trkpt lat="44.85802" lon="3.49307">
        <ele>1154</ele>
        <time>2020-08-19T21:24:21Z</time>
      </trkpt>
      <trkpt lat="44.85657" lon="3.49333">
        <ele>1156</ele>
        <time>2020-08-19T21:26:18Z</time>
      </trkpt>
      <trkpt lat="44.85676" lon="3.49424">
        <ele>1166</ele>
        <time>2020-08-19T21:27:12Z</time>
      </trkpt>
      <trkpt lat="44.856" lon="3.49527">
        <ele>1177</ele>
        <time>2020-08-19T21:28:36Z</time>
      </trkpt>
      <trkpt lat="44.85346" lon="3.49593">
        <ele>1175</ele>
        <time>2020-08-19T21:32:03Z</time>
      </trkpt>
      <trkpt lat="44.851" lon="3.49598">
        <ele>1181</ele>
        <time>2020-08-19T21:35:20Z</time>
      </trkpt>
      <trkpt lat="44.85042" lon="3.49669">
        <ele>1186</ele>
        <time>2020-08-19T21:36:22Z</time>
      </trkpt>
      <trkpt lat="44.84977" lon="3.49654">
        <ele>1187</ele>
        <time>2020-08-19T21:37:14Z</time>
      </trkpt>
      <trkpt lat="44.84887" lon="3.49756">
        <ele>1203</ele>
        <time>2020-08-19T21:38:47Z</time>
      </trkpt>
      <trkpt lat="44.84804" lon="3.49675">
        <ele>1203</ele>
        <time>2020-08-19T21:40:08Z</time>
      </trkpt>
      <trkpt lat="44.84644" lon="3.49787">
        <ele>1210</ele>
        <time>2020-08-19T21:42:31Z</time>
      </trkpt>
      <trkpt lat="44.84463" lon="3.49858">
        <ele>1228</ele>
        <time>2020-08-19T21:45:01Z</time>
      </trkpt>
      <trkpt lat="44.84297" lon="3.49828">
        <ele>1235</ele>
        <time>2020-08-19T21:47:15Z</time>
      </trkpt>
      <trkpt lat="44.84145" lon="3.49532">
        <ele>1238</ele>
        <time>2020-08-19T21:50:42Z</time>
      </trkpt>
      <trkpt lat="44.84" lon="3.49588">
        <ele>1265</ele>
        <time>2020-08-19T21:52:43Z</time>
      </trkpt>
      <trkpt lat="44.83798" lon="3.49567">
        <ele>1284</ele>
        <time>2020-08-19T21:55:25Z</time>
      </trkpt>
      <trkpt lat="44.83523" lon="3.49557">
        <ele>1303</ele>
        <time>2020-08-19T21:59:05Z</time>
      </trkpt>
      <trkpt lat="44.83497" lon="3.49756">
        <ele>1323</ele>
        <time>2020-08-19T22:01:00Z</time>
      </trkpt>
      <trkpt lat="44.8302" lon="3.49613">
        <ele>1326</ele>
        <time>2020-08-19T22:07:31Z</time>
      </trkpt>
      <trkpt lat="44.83092" lon="3.49424">
        <ele>1313</ele>
        <time>2020-08-19T22:09:32Z</time>
      </trkpt>
      <trkpt lat="44.83041" lon="3.49241">
        <ele>1306</ele>
        <time>2020-08-19T22:11:24Z</time>
      </trkpt>
      <trkpt lat="44.82936" lon="3.49128">
        <ele>1295</ele>
        <time>2020-08-19T22:13:10Z</time>
      </trkpt>
      <trkpt lat="44.82795" lon="3.49047">
        <ele>1293</ele>
        <time>2020-08-19T22:15:12Z</time>
      </trkpt>
      <trkpt lat="44.82701" lon="3.49144">
        <ele>1304</ele>
        <time>2020-08-19T22:16:45Z</time>
      </trkpt>
      <trkpt lat="44.82473" lon="3.49016">
        <ele>1301</ele>
        <time>2020-08-19T22:20:02Z</time>
      </trkpt>
      <trkpt lat="44.82466" lon="3.48679">
        <ele>1289</ele>
        <time>2020-08-19T22:23:13Z</time>
      </trkpt>
    </trkseg>
  </trk>
</gpx>